sensor_id;sensor_type;location;lat;lon;timestamp;pressure;altitude;pressure_sealevel;temperature;humidity
76590;BME280;65471;55.908;37.880;2023-07-31T00:00:15;98976.03;;;13.88;90.94
76590;BME280;65471;55.908;37.880;2023-07-31T00:02:42;98977.13;;;13.87;91.08
76590;BME280;65471;55.908;37.880;2023-07-31T00:05:09;98973.84;;;13.85;90.95
76590;BME280;65471;55.908;37.880;2023-07-31T00:07:36;98971.41;;;13.84;91.20
76590;BME280;65471;55.908;37.880;2023-07-31T00:10:03;98981.75;;;13.87;91.07
76590;BME280;65471;55.908;37.880;2023-07-31T00:12:30;98988.25;;;13.91;91.14
76590;BME280;65471;55.908;37.880;2023-07-31T00:14:57;98984.16;;;13.93;91.08
76590;BME280;65471;55.908;37.880;2023-07-31T00:17:24;98978.72;;;13.93;90.86
76590;BME280;65471;55.908;37.880;2023-07-31T00:19:51;98977.38;;;13.91;91.11
76590;BME280;65471;55.908;37.880;2023-07-31T00:22:18;98976.84;;;13.89;91.19
76590;BME280;65471;55.908;37.880;2023-07-31T00:24:45;98974.41;;;13.87;91.13
76590;BME280;65471;55.908;37.880;2023-07-31T00:27:12;98970.31;;;13.85;91.20
76590;BME280;65471;55.908;37.880;2023-07-31T00:29:39;98966.25;;;13.82;91.34
76590;BME280;65471;55.908;37.880;2023-07-31T00:32:06;98959.44;;;13.79;91.44
76590;BME280;65471;55.908;37.880;2023-07-31T00:34:33;98950.75;;;13.77;91.33
76590;BME280;65471;55.908;37.880;2023-07-31T00:37:00;98966.25;;;13.77;91.44
76590;BME280;65471;55.908;37.880;2023-07-31T00:39:27;98954.84;;;13.75;91.57
76590;BME280;65471;55.908;37.880;2023-07-31T00:41:54;98955.66;;;13.75;91.39
76590;BME280;65471;55.908;37.880;2023-07-31T00:44:21;98964.91;;;13.74;91.38
76590;BME280;65471;55.908;37.880;2023-07-31T00:46:48;98966.25;;;13.72;91.57
76590;BME280;65471;55.908;37.880;2023-07-31T00:49:16;98966.53;;;13.70;91.60
76590;BME280;65471;55.908;37.880;2023-07-31T00:51:43;98973.03;;;13.69;91.54
76590;BME280;65471;55.908;37.880;2023-07-31T00:54:10;98974.94;;;13.69;91.68
76590;BME280;65471;55.908;37.880;2023-07-31T00:56:37;98970.88;;;13.66;91.63
76590;BME280;65471;55.908;37.880;2023-07-31T00:59:05;98961.66;;;13.67;91.80
76590;BME280;65471;55.908;37.880;2023-07-31T01:01:32;98961.09;;;13.65;91.80
76590;BME280;65471;55.908;37.880;2023-07-31T01:03:59;98964.34;;;13.62;91.71
76590;BME280;65471;55.908;37.880;2023-07-31T01:12:15;98969.78;;;13.52;91.82
76590;BME280;65471;55.908;37.880;2023-07-31T01:15:12;98968.72;;;13.53;91.80
76590;BME280;65471;55.908;37.880;2023-07-31T01:17:42;98975.22;;;13.52;91.95
76590;BME280;65471;55.908;37.880;2023-07-31T01:20:15;98981.19;;;13.54;91.69
76590;BME280;65471;55.908;37.880;2023-07-31T01:23:08;98973.88;;;13.54;91.68
76590;BME280;65471;55.908;37.880;2023-07-31T01:26:12;98977.38;;;13.55;91.77
76590;BME280;65471;55.908;37.880;2023-07-31T01:28:48;98979.56;;;13.53;91.73
76590;BME280;65471;55.908;37.880;2023-07-31T01:31:21;98972.22;;;13.53;91.83
76590;BME280;65471;55.908;37.880;2023-07-31T01:33:50;98985.25;;;13.56;91.85
76590;BME280;65471;55.908;37.880;2023-07-31T01:36:19;98985.53;;;13.55;91.77
76590;BME280;65471;55.908;37.880;2023-07-31T01:38:46;98980.09;;;13.55;91.97
76590;BME280;65471;55.908;37.880;2023-07-31T01:41:16;98980.09;;;13.55;91.90
76590;BME280;65471;55.908;37.880;2023-07-31T01:43:45;98981.44;;;13.52;91.91
76590;BME280;65471;55.908;37.880;2023-07-31T01:46:12;98991.78;;;13.50;91.91
76590;BME280;65471;55.908;37.880;2023-07-31T01:48:39;98983.38;;;13.52;92.04
76590;BME280;65471;55.908;37.880;2023-07-31T01:51:06;98986.88;;;13.52;91.84
76590;BME280;65471;55.908;37.880;2023-07-31T01:53:33;98973.88;;;13.54;91.98
76590;BME280;65471;55.908;37.880;2023-07-31T01:56:00;98986.38;;;13.55;91.87
76590;BME280;65471;55.908;37.880;2023-07-31T01:58:27;98985.81;;;13.53;91.90
76590;BME280;65471;55.908;37.880;2023-07-31T02:00:54;98979.81;;;13.56;92.03
76590;BME280;65471;55.908;37.880;2023-07-31T02:03:21;98972.50;;;13.57;92.06
76590;BME280;65471;55.908;37.880;2023-07-31T02:05:49;98976.03;;;13.57;91.93
76590;BME280;65471;55.908;37.880;2023-07-31T02:08:16;98982.28;;;13.53;92.13
76590;BME280;65471;55.908;37.880;2023-07-31T02:10:43;98987.69;;;13.48;92.12
76590;BME280;65471;55.908;37.880;2023-07-31T02:13:10;98994.50;;;13.40;92.16
76590;BME280;65471;55.908;37.880;2023-07-31T02:15:37;98986.56;;;13.33;92.33
76590;BME280;65471;55.908;37.880;2023-07-31T02:18:04;98983.31;;;13.31;92.31
76590;BME280;65471;55.908;37.880;2023-07-31T02:20:35;98983.56;;;13.29;92.15
76590;BME280;65471;55.908;37.880;2023-07-31T02:23:02;98985.75;;;13.27;92.14
76590;BME280;65471;55.908;37.880;2023-07-31T02:25:29;98987.91;;;13.30;92.19
76590;BME280;65471;55.908;37.880;2023-07-31T02:27:56;98982.22;;;13.32;92.12
76590;BME280;65471;55.908;37.880;2023-07-31T02:30:23;98985.50;;;13.34;92.19
76590;BME280;65471;55.908;37.880;2023-07-31T02:32:50;98983.63;;;13.35;92.10
76590;BME280;65471;55.908;37.880;2023-07-31T02:35:17;98983.34;;;13.36;92.08
76590;BME280;65471;55.908;37.880;2023-07-31T02:37:45;99000.16;;;13.33;91.89
76590;BME280;65471;55.908;37.880;2023-07-31T02:40:12;98992.31;;;13.37;91.98
76590;BME280;65471;55.908;37.880;2023-07-31T02:42:39;98984.72;;;13.39;91.88
76590;BME280;65471;55.908;37.880;2023-07-31T02:45:06;98983.38;;;13.41;91.94
76590;BME280;65471;55.908;37.880;2023-07-31T02:47:34;98991.50;;;13.41;92.03
76590;BME280;65471;55.908;37.880;2023-07-31T02:50:02;98985.25;;;13.41;91.78
76590;BME280;65471;55.908;37.880;2023-07-31T02:52:30;98982.25;;;13.37;91.83
76590;BME280;65471;55.908;37.880;2023-07-31T02:54:57;98995.31;;;13.40;91.86
76590;BME280;65471;55.908;37.880;2023-07-31T02:57:24;98993.94;;;13.43;91.91
76590;BME280;65471;55.908;37.880;2023-07-31T02:59:51;98995.59;;;13.44;91.98
76590;BME280;65471;55.908;37.880;2023-07-31T03:02:18;98993.41;;;13.46;91.98
76590;BME280;65471;55.908;37.880;2023-07-31T03:04:46;98983.63;;;13.50;92.14
76590;BME280;65471;55.908;37.880;2023-07-31T03:07:13;98992.88;;;13.54;92.21
76590;BME280;65471;55.908;37.880;2023-07-31T03:09:40;98986.09;;;13.57;92.22
76590;BME280;65471;55.908;37.880;2023-07-31T03:12:07;98994.25;;;13.67;91.95
76590;BME280;65471;55.908;37.880;2023-07-31T03:14:34;98989.91;;;13.71;91.87
76590;BME280;65471;55.908;37.880;2023-07-31T03:17:01;98990.72;;;13.77;91.96
76590;BME280;65471;55.908;37.880;2023-07-31T03:19:30;98974.66;;;13.80;91.85
76590;BME280;65471;55.908;37.880;2023-07-31T03:21:58;98980.63;;;13.88;91.85
76590;BME280;65471;55.908;37.880;2023-07-31T03:24:26;98975.22;;;13.93;91.91
76590;BME280;65471;55.908;37.880;2023-07-31T03:26:53;98976.81;;;13.99;91.85
76590;BME280;65471;55.908;37.880;2023-07-31T03:29:20;98980.34;;;14.05;91.82
76590;BME280;65471;55.908;37.880;2023-07-31T03:31:50;98979.50;;;14.09;91.82
76590;BME280;65471;55.908;37.880;2023-07-31T03:34:17;98980.06;;;14.17;91.75
76590;BME280;65471;55.908;37.880;2023-07-31T03:36:44;98991.47;;;14.24;91.61
76590;BME280;65471;55.908;37.880;2023-07-31T03:39:11;98979.50;;;14.30;91.54
76590;BME280;65471;55.908;37.880;2023-07-31T03:41:38;98981.09;;;14.36;91.31
76590;BME280;65471;55.908;37.880;2023-07-31T03:44:05;98975.38;;;14.43;91.13
76590;BME280;65471;55.908;37.880;2023-07-31T03:46:32;98971.53;;;14.49;90.92
76590;BME280;65471;55.908;37.880;2023-07-31T03:49:00;98970.44;;;14.55;90.85
76590;BME280;65471;55.908;37.880;2023-07-31T03:51:27;98981.88;;;14.62;90.63
76590;BME280;65471;55.908;37.880;2023-07-31T03:53:54;98972.31;;;14.70;90.40
76590;BME280;65471;55.908;37.880;2023-07-31T03:56:21;98976.63;;;14.76;90.32
76590;BME280;65471;55.908;37.880;2023-07-31T03:58:49;98974.69;;;14.82;90.02
76590;BME280;65471;55.908;37.880;2023-07-31T04:01:16;98992.88;;;14.92;89.97
76590;BME280;65471;55.908;37.880;2023-07-31T04:03:43;98987.44;;;14.97;89.81
76590;BME280;65471;55.908;37.880;2023-07-31T04:06:10;98986.28;;;15.03;89.59
76590;BME280;65471;55.908;37.880;2023-07-31T04:08:37;98981.63;;;15.09;89.42
76590;BME280;65471;55.908;37.880;2023-07-31T04:11:04;98973.41;;;15.19;89.45
76590;BME280;65471;55.908;37.880;2023-07-31T04:13:31;98977.97;;;15.29;89.15
76590;BME280;65471;55.908;37.880;2023-07-31T04:15:58;98980.09;;;15.37;88.75
76590;BME280;65471;55.908;37.880;2023-07-31T04:18:25;98986.59;;;15.46;88.41
76590;BME280;65471;55.908;37.880;2023-07-31T04:20:52;98984.34;;;15.53;87.96
76590;BME280;65471;55.908;37.880;2023-07-31T04:23:22;98986.44;;;15.62;87.79
76590;BME280;65471;55.908;37.880;2023-07-31T04:25:49;98983.97;;;15.70;87.48
76590;BME280;65471;55.908;37.880;2023-07-31T04:28:17;98973.28;;;15.79;86.80
76590;BME280;65471;55.908;37.880;2023-07-31T04:30:44;98992.25;;;15.90;86.34
76590;BME280;65471;55.908;37.880;2023-07-31T04:33:12;98989.25;;;15.91;86.56
76590;BME280;65471;55.908;37.880;2023-07-31T04:35:39;98985.63;;;16.01;86.28
76590;BME280;65471;55.908;37.880;2023-07-31T04:38:06;98983.34;;;16.13;85.91
76590;BME280;65471;55.908;37.880;2023-07-31T04:40:33;98982.69;;;16.21;85.76
76590;BME280;65471;55.908;37.880;2023-07-31T04:42:59;98987.22;;;16.31;85.57
76590;BME280;65471;55.908;37.880;2023-07-31T04:45:26;98977.03;;;16.42;84.89
76590;BME280;65471;55.908;37.880;2023-07-31T04:47:53;98975.25;;;16.51;84.05
76590;BME280;65471;55.908;37.880;2023-07-31T04:50:20;98991.81;;;16.60;83.39
76590;BME280;65471;55.908;37.880;2023-07-31T04:52:47;98987.34;;;16.69;83.18
76590;BME280;65471;55.908;37.880;2023-07-31T04:55:14;98988.59;;;16.77;82.79
76590;BME280;65471;55.908;37.880;2023-07-31T04:57:41;98987.97;;;16.85;81.89
76590;BME280;65471;55.908;37.880;2023-07-31T05:00:08;98988.97;;;16.95;81.56
76590;BME280;65471;55.908;37.880;2023-07-31T05:02:35;98985.88;;;17.01;81.21
76590;BME280;65471;55.908;37.880;2023-07-31T05:05:03;98984.41;;;17.09;80.86
76590;BME280;65471;55.908;37.880;2023-07-31T05:07:30;98980.00;;;17.13;80.83
76590;BME280;65471;55.908;37.880;2023-07-31T05:09:57;98985.91;;;17.20;80.49
76590;BME280;65471;55.908;37.880;2023-07-31T05:12:24;98983.31;;;17.29;78.56
76590;BME280;65471;55.908;37.880;2023-07-31T05:14:51;98981.94;;;17.46;76.09
76590;BME280;65471;55.908;37.880;2023-07-31T05:17:18;98990.16;;;17.65;76.15
76590;BME280;65471;55.908;37.880;2023-07-31T05:19:45;98990.47;;;17.77;76.75
76590;BME280;65471;55.908;37.880;2023-07-31T05:22:12;98981.09;;;17.83;77.09
76590;BME280;65471;55.908;37.880;2023-07-31T05:24:38;98990.25;;;17.92;76.84
76590;BME280;65471;55.908;37.880;2023-07-31T05:27:06;98985.13;;;18.05;76.48
76590;BME280;65471;55.908;37.880;2023-07-31T05:29:33;98987.66;;;18.15;76.21
76590;BME280;65471;55.908;37.880;2023-07-31T05:31:59;98987.47;;;18.25;75.50
76590;BME280;65471;55.908;37.880;2023-07-31T05:34:27;98987.31;;;18.36;75.03
76590;BME280;65471;55.908;37.880;2023-07-31T05:36:53;98995.94;;;18.43;74.11
76590;BME280;65471;55.908;37.880;2023-07-31T05:39:20;98995.72;;;18.53;73.81
76590;BME280;65471;55.908;37.880;2023-07-31T05:41:47;98988.72;;;18.61;73.52
76590;BME280;65471;55.908;37.880;2023-07-31T05:44:14;99001.69;;;18.69;73.05
76590;BME280;65471;55.908;37.880;2023-07-31T05:46:41;98990.03;;;18.77;72.76
76590;BME280;65471;55.908;37.880;2023-07-31T05:49:09;98998.44;;;18.81;71.46
76590;BME280;65471;55.908;37.880;2023-07-31T05:51:36;98996.97;;;18.89;71.74
76590;BME280;65471;55.908;37.880;2023-07-31T05:54:02;99003.63;;;18.96;71.81
76590;BME280;65471;55.908;37.880;2023-07-31T05:56:29;99004.34;;;19.02;71.61
76590;BME280;65471;55.908;37.880;2023-07-31T05:58:56;98994.06;;;19.08;71.45
76590;BME280;65471;55.908;37.880;2023-07-31T06:01:23;98995.59;;;19.14;71.19
76590;BME280;65471;55.908;37.880;2023-07-31T06:03:50;98991.09;;;19.18;70.75
76590;BME280;65471;55.908;37.880;2023-07-31T06:06:18;98991.81;;;19.24;70.26
76590;BME280;65471;55.908;37.880;2023-07-31T06:08:45;98993.00;;;19.31;70.50
76590;BME280;65471;55.908;37.880;2023-07-31T06:11:12;98993.19;;;19.35;69.79
76590;BME280;65471;55.908;37.880;2023-07-31T06:13:38;99000.88;;;19.47;68.50
76590;BME280;65471;55.908;37.880;2023-07-31T06:16:09;99002.75;;;19.60;68.51
76590;BME280;65471;55.908;37.880;2023-07-31T06:18:36;99003.66;;;19.70;68.29
76590;BME280;65471;55.908;37.880;2023-07-31T06:21:03;99001.28;;;19.77;68.07
76590;BME280;65471;55.908;37.880;2023-07-31T06:23:30;99001.06;;;19.87;67.18
76590;BME280;65471;55.908;37.880;2023-07-31T06:25:56;98991.56;;;19.93;67.19
76590;BME280;65471;55.908;37.880;2023-07-31T06:28:28;98997.94;;;20.03;66.61
76590;BME280;65471;55.908;37.880;2023-07-31T06:30:58;99002.63;;;20.11;66.68
76590;BME280;65471;55.908;37.880;2023-07-31T06:33:26;99000.88;;;20.15;66.03
76590;BME280;65471;55.908;37.880;2023-07-31T06:35:53;99004.97;;;20.26;65.85
76590;BME280;65471;55.908;37.880;2023-07-31T06:38:22;99000.34;;;20.35;65.94
76590;BME280;65471;55.908;37.880;2023-07-31T06:40:49;99004.09;;;20.40;65.64
76590;BME280;65471;55.908;37.880;2023-07-31T06:43:17;98997.84;;;20.48;64.50
76590;BME280;65471;55.908;37.880;2023-07-31T06:45:44;98991.72;;;20.60;63.11
76590;BME280;65471;55.908;37.880;2023-07-31T06:48:11;99001.13;;;20.67;63.28
76590;BME280;65471;55.908;37.880;2023-07-31T06:50:38;99003.13;;;20.76;63.62
76590;BME280;65471;55.908;37.880;2023-07-31T06:53:05;99007.00;;;20.83;62.27
76590;BME280;65471;55.908;37.880;2023-07-31T06:55:33;99008.31;;;20.95;61.08
76590;BME280;65471;55.908;37.880;2023-07-31T06:58:00;99005.97;;;21.11;61.20
76590;BME280;65471;55.908;37.880;2023-07-31T07:00:27;99009.50;;;21.20;60.68
76590;BME280;65471;55.908;37.880;2023-07-31T07:02:54;99004.84;;;21.29;59.83
76590;BME280;65471;55.908;37.880;2023-07-31T07:05:21;99001.13;;;21.34;58.35
76590;BME280;65471;55.908;37.880;2023-07-31T07:07:49;99007.09;;;21.45;56.44
76590;BME280;65471;55.908;37.880;2023-07-31T07:10:18;98999.19;;;21.52;57.22
76590;BME280;65471;55.908;37.880;2023-07-31T07:12:45;99012.97;;;21.61;57.84
76590;BME280;65471;55.908;37.880;2023-07-31T07:15:12;99013.31;;;21.59;57.94
76590;BME280;65471;55.908;37.880;2023-07-31T07:17:39;99008.44;;;21.65;57.88
76590;BME280;65471;55.908;37.880;2023-07-31T07:20:07;99010.22;;;21.69;56.98
76590;BME280;65471;55.908;37.880;2023-07-31T07:22:34;99010.34;;;21.73;57.71
76590;BME280;65471;55.908;37.880;2023-07-31T07:25:02;99005.50;;;21.79;55.09
76590;BME280;65471;55.908;37.880;2023-07-31T07:27:30;99004.69;;;21.87;55.63
76590;BME280;65471;55.908;37.880;2023-07-31T07:29:58;98998.19;;;21.92;56.38
76590;BME280;65471;55.908;37.880;2023-07-31T07:32:24;98998.03;;;21.97;56.31
76590;BME280;65471;55.908;37.880;2023-07-31T07:34:52;99008.88;;;22.02;57.08
76590;BME280;65471;55.908;37.880;2023-07-31T07:37:19;99012.28;;;22.08;56.45
76590;BME280;65471;55.908;37.880;2023-07-31T07:39:45;99009.31;;;22.13;55.38
76590;BME280;65471;55.908;37.880;2023-07-31T07:42:12;99011.91;;;22.18;55.73
76590;BME280;65471;55.908;37.880;2023-07-31T07:44:39;99011.72;;;22.23;55.15
76590;BME280;65471;55.908;37.880;2023-07-31T07:47:06;99012.53;;;22.32;55.52
76590;BME280;65471;55.908;37.880;2023-07-31T07:49:34;99008.97;;;22.40;55.67
76590;BME280;65471;55.908;37.880;2023-07-31T07:52:02;99008.66;;;22.33;56.35
76590;BME280;65471;55.908;37.880;2023-07-31T07:54:30;99004.59;;;22.39;56.94
76590;BME280;65471;55.908;37.880;2023-07-31T07:56:57;99013.59;;;22.49;56.41
76590;BME280;65471;55.908;37.880;2023-07-31T07:59:24;99004.50;;;22.57;54.35
76590;BME280;65471;55.908;37.880;2023-07-31T08:01:51;99001.38;;;22.67;54.41
76590;BME280;65471;55.908;37.880;2023-07-31T08:04:18;99019.53;;;22.68;54.61
76590;BME280;65471;55.908;37.880;2023-07-31T08:06:45;99010.81;;;22.66;55.11
76590;BME280;65471;55.908;37.880;2023-07-31T08:09:12;99003.16;;;22.72;54.36
76590;BME280;65471;55.908;37.880;2023-07-31T08:11:39;99011.22;;;22.77;53.58
76590;BME280;65471;55.908;37.880;2023-07-31T08:14:05;99015.94;;;22.77;52.71
76590;BME280;65471;55.908;37.880;2023-07-31T08:16:32;99024.81;;;22.82;52.03
76590;BME280;65471;55.908;37.880;2023-07-31T08:19:00;99012.31;;;22.85;50.56
76590;BME280;65471;55.908;37.880;2023-07-31T08:21:27;99012.94;;;22.90;51.44
76590;BME280;65471;55.908;37.880;2023-07-31T08:23:54;99018.25;;;22.96;51.73
76590;BME280;65471;55.908;37.880;2023-07-31T08:26:21;99017.06;;;23.05;49.91
76590;BME280;65471;55.908;37.880;2023-07-31T08:28:48;99019.59;;;23.19;49.99
76590;BME280;65471;55.908;37.880;2023-07-31T08:31:14;99021.41;;;23.15;50.70
76590;BME280;65471;55.908;37.880;2023-07-31T08:33:41;99024.38;;;23.01;50.28
76590;BME280;65471;55.908;37.880;2023-07-31T08:36:08;99021.69;;;22.92;50.88
76590;BME280;65471;55.908;37.880;2023-07-31T08:38:35;99024.38;;;23.01;51.96
76590;BME280;65471;55.908;37.880;2023-07-31T08:41:03;99029.56;;;23.03;51.28
76590;BME280;65471;55.908;37.880;2023-07-31T08:43:31;99026.41;;;22.92;51.89
76590;BME280;65471;55.908;37.880;2023-07-31T08:45:59;99026.44;;;22.83;50.90
76590;BME280;65471;55.908;37.880;2023-07-31T08:48:28;99032.19;;;22.99;51.81
76590;BME280;65471;55.908;37.880;2023-07-31T08:50:55;99017.97;;;23.18;53.03
76590;BME280;65471;55.908;37.880;2023-07-31T08:53:22;99015.09;;;23.36;53.22
76590;BME280;65471;55.908;37.880;2023-07-31T08:55:52;99020.84;;;23.52;51.88
76590;BME280;65471;55.908;37.880;2023-07-31T08:58:20;99033.53;;;23.65;50.77
76590;BME280;65471;55.908;37.880;2023-07-31T09:00:48;99026.81;;;23.75;48.91
76590;BME280;65471;55.908;37.880;2023-07-31T09:03:18;99008.69;;;23.86;47.48
76590;BME280;65471;55.908;37.880;2023-07-31T09:05:46;99027.50;;;23.93;46.13
76590;BME280;65471;55.908;37.880;2023-07-31T09:08:14;99024.25;;;23.91;46.49
76590;BME280;65471;55.908;37.880;2023-07-31T09:10:44;99026.66;;;23.71;47.08
76590;BME280;65471;55.908;37.880;2023-07-31T09:13:15;99015.84;;;23.66;49.70
76590;BME280;65471;55.908;37.880;2023-07-31T09:15:45;99021.69;;;23.65;49.98
76590;BME280;65471;55.908;37.880;2023-07-31T09:18:13;99017.38;;;23.76;49.47
76590;BME280;65471;55.908;37.880;2023-07-31T09:20:44;99018.03;;;23.94;48.18
76590;BME280;65471;55.908;37.880;2023-07-31T09:23:12;99017.41;;;24.09;46.76
76590;BME280;65471;55.908;37.880;2023-07-31T09:25:43;99018.81;;;24.28;48.43
76590;BME280;65471;55.908;37.880;2023-07-31T09:28:11;99025.53;;;24.39;50.04
76590;BME280;65471;55.908;37.880;2023-07-31T09:30:50;99026.81;;;24.42;48.51
76590;BME280;65471;55.908;37.880;2023-07-31T09:33:18;99012.50;;;24.40;48.51
76590;BME280;65471;55.908;37.880;2023-07-31T09:35:46;99023.56;;;24.40;48.59
76590;BME280;65471;55.908;37.880;2023-07-31T09:38:15;99032.31;;;24.42;45.87
76590;BME280;65471;55.908;37.880;2023-07-31T09:40:46;99020.72;;;24.49;46.80
76590;BME280;65471;55.908;37.880;2023-07-31T09:43:18;99022.31;;;24.50;45.98
76590;BME280;65471;55.908;37.880;2023-07-31T09:45:46;99033.13;;;24.42;48.35
76590;BME280;65471;55.908;37.880;2023-07-31T09:48:16;99029.78;;;24.37;47.40
76590;BME280;65471;55.908;37.880;2023-07-31T09:50:45;99018.16;;;24.43;44.74
76590;BME280;65471;55.908;37.880;2023-07-31T09:53:12;99022.53;;;24.57;47.20
76590;BME280;65471;55.908;37.880;2023-07-31T09:55:40;99016.22;;;24.56;46.57
76590;BME280;65471;55.908;37.880;2023-07-31T09:58:09;99023.50;;;24.61;45.99
76590;BME280;65471;55.908;37.880;2023-07-31T10:00:37;99022.09;;;24.55;46.97
76590;BME280;65471;55.908;37.880;2023-07-31T10:03:08;99014.03;;;24.50;46.50
76590;BME280;65471;55.908;37.880;2023-07-31T10:08:03;99022.69;;;24.02;48.04
76590;BME280;65471;55.908;37.880;2023-07-31T10:10:31;99034.06;;;23.79;49.30
76590;BME280;65471;55.908;37.880;2023-07-31T10:12:59;99035.34;;;23.61;50.25
76590;BME280;65471;55.908;37.880;2023-07-31T10:15:28;99034.69;;;23.64;49.97
76590;BME280;65471;55.908;37.880;2023-07-31T10:17:56;99031.97;;;23.76;49.74
76590;BME280;65471;55.908;37.880;2023-07-31T10:20:24;99030.28;;;23.84;49.34
76590;BME280;65471;55.908;37.880;2023-07-31T10:22:54;99023.22;;;23.95;49.33
76590;BME280;65471;55.908;37.880;2023-07-31T10:25:22;99013.50;;;24.10;49.71
76590;BME280;65471;55.908;37.880;2023-07-31T10:27:49;99021.25;;;24.29;50.34
76590;BME280;65471;55.908;37.880;2023-07-31T10:30:19;99014.84;;;24.50;48.98
76590;BME280;65471;55.908;37.880;2023-07-31T10:32:47;99023.97;;;24.75;46.47
76590;BME280;65471;55.908;37.880;2023-07-31T10:35:17;99022.22;;;24.95;46.18
76590;BME280;65471;55.908;37.880;2023-07-31T10:37:44;99019.81;;;25.06;44.57
76590;BME280;65471;55.908;37.880;2023-07-31T10:40:25;99017.69;;;25.28;42.16
76590;BME280;65471;55.908;37.880;2023-07-31T10:42:56;99014.03;;;25.36;43.41
76590;BME280;65471;55.908;37.880;2023-07-31T10:45:35;99009.75;;;25.39;43.81
76590;BME280;65471;55.908;37.880;2023-07-31T10:48:16;99012.16;;;25.28;43.76
76590;BME280;65471;55.908;37.880;2023-07-31T10:53:25;99007.41;;;25.53;44.17
76590;BME280;65471;55.908;37.880;2023-07-31T10:55:52;99008.00;;;25.46;44.54
76590;BME280;65471;55.908;37.880;2023-07-31T10:58:20;99011.59;;;25.47;44.38
76590;BME280;65471;55.908;37.880;2023-07-31T11:00:55;99014.97;;;25.69;45.18
76590;BME280;65471;55.908;37.880;2023-07-31T11:03:26;99008.31;;;25.86;41.53
76590;BME280;65471;55.908;37.880;2023-07-31T11:06:03;99015.41;;;25.99;41.99
76590;BME280;65471;55.908;37.880;2023-07-31T11:08:33;99006.31;;;25.98;41.93
76590;BME280;65471;55.908;37.880;2023-07-31T11:13:46;98999.56;;;25.83;39.73
76590;BME280;65471;55.908;37.880;2023-07-31T11:16:18;99001.94;;;25.69;42.61
76590;BME280;65471;55.908;37.880;2023-07-31T11:18:47;99010.38;;;25.60;41.25
76590;BME280;65471;55.908;37.880;2023-07-31T11:21:25;99009.66;;;25.63;42.96
76590;BME280;65471;55.908;37.880;2023-07-31T11:23:56;99002.06;;;25.60;44.18
76590;BME280;65471;55.908;37.880;2023-07-31T11:26:24;99003.59;;;25.58;44.98
76590;BME280;65471;55.908;37.880;2023-07-31T11:28:51;99012.09;;;25.65;43.96
76590;BME280;65471;55.908;37.880;2023-07-31T11:31:18;98997.28;;;25.73;41.07
76590;BME280;65471;55.908;37.880;2023-07-31T11:33:46;99004.19;;;25.51;41.76
76590;BME280;65471;55.908;37.880;2023-07-31T11:36:18;98999.59;;;25.30;43.00
76590;BME280;65471;55.908;37.880;2023-07-31T11:38:45;99000.44;;;25.06;44.29
76590;BME280;65471;55.908;37.880;2023-07-31T11:41:14;99002.91;;;24.83;43.99
76590;BME280;65471;55.908;37.880;2023-07-31T11:43:42;98997.63;;;24.66;46.75
76590;BME280;65471;55.908;37.880;2023-07-31T11:46:09;99000.91;;;24.46;50.72
76590;BME280;65471;55.908;37.880;2023-07-31T11:48:37;99008.94;;;24.39;51.10
76590;BME280;65471;55.908;37.880;2023-07-31T11:51:06;99006.34;;;25.58;47.93
76590;BME280;65471;55.908;37.880;2023-07-31T11:53:40;99001.06;;;27.41;45.21
76590;BME280;65471;55.908;37.880;2023-07-31T11:56:09;98994.47;;;29.04;42.51
76590;BME280;65471;55.908;37.880;2023-07-31T11:58:38;99001.97;;;30.28;40.76
76590;BME280;65471;55.908;37.880;2023-07-31T12:01:06;99001.78;;;30.48;38.36
76590;BME280;65471;55.908;37.880;2023-07-31T12:03:34;99009.38;;;29.42;39.97
76590;BME280;65471;55.908;37.880;2023-07-31T12:06:01;99011.31;;;28.38;40.52
76590;BME280;65471;55.908;37.880;2023-07-31T12:08:29;99013.72;;;27.58;40.35
76590;BME280;65471;55.908;37.880;2023-07-31T12:11:02;99017.66;;;26.85;41.24
76590;BME280;65471;55.908;37.880;2023-07-31T12:13:31;99015.22;;;26.36;43.38
76590;BME280;65471;55.908;37.880;2023-07-31T12:16:03;99019.22;;;26.07;45.17
76590;BME280;65471;55.908;37.880;2023-07-31T12:18:36;99018.09;;;25.67;46.67
76590;BME280;65471;55.908;37.880;2023-07-31T12:21:06;99022.31;;;25.48;48.13
76590;BME280;65471;55.908;37.880;2023-07-31T12:23:35;99009.22;;;25.90;47.10
76590;BME280;65471;55.908;37.880;2023-07-31T12:26:17;99019.28;;;25.82;46.57
76590;BME280;65471;55.908;37.880;2023-07-31T12:28:49;99019.75;;;25.56;46.27
76590;BME280;65471;55.908;37.880;2023-07-31T12:31:18;99014.22;;;25.31;47.85
76590;BME280;65471;55.908;37.880;2023-07-31T12:33:47;99024.78;;;25.01;49.30
76590;BME280;65471;55.908;37.880;2023-07-31T12:36:16;99023.75;;;24.68;50.97
76590;BME280;65471;55.908;37.880;2023-07-31T12:38:44;99028.41;;;24.43;51.85
76590;BME280;65471;55.908;37.880;2023-07-31T12:41:11;99037.81;;;24.17;52.83
76590;BME280;65471;55.908;37.880;2023-07-31T12:43:41;99030.16;;;24.02;52.05
76590;BME280;65471;55.908;37.880;2023-07-31T12:46:09;99033.91;;;23.97;51.79
76590;BME280;65471;55.908;37.880;2023-07-31T12:48:37;99036.78;;;23.88;51.93
76590;BME280;65471;55.908;37.880;2023-07-31T12:51:05;99028.81;;;23.87;51.01
76590;BME280;65471;55.908;37.880;2023-07-31T12:53:33;99033.03;;;23.84;50.95
76590;BME280;65471;55.908;37.880;2023-07-31T12:56:01;99034.88;;;23.80;51.13
76590;BME280;65471;55.908;37.880;2023-07-31T12:58:28;99040.25;;;23.76;51.30
76590;BME280;65471;55.908;37.880;2023-07-31T13:00:55;99045.97;;;23.71;51.75
76590;BME280;65471;55.908;37.880;2023-07-31T13:03:22;99039.41;;;23.64;52.07
76590;BME280;65471;55.908;37.880;2023-07-31T13:05:50;99036.22;;;23.53;51.29
76590;BME280;65471;55.908;37.880;2023-07-31T13:08:17;99039.88;;;23.44;50.25